Terminal Aerodrome Forecast
Issued by NWS Sterling, VA

Current Version | Previous Version | Text Only | Print | Product List | Glossary Off
Versions: 1 2 3 4 5 6 7 8 9 10 11 12 13 14 15 16 17 18 19 20 21

000
FTUS41 KLWX 200530
TAFDCA
TAF
KDCA 200530Z 2006/2106 21009KT P6SM FEW010 SCT120
     FM200900 25006KT P6SM SKC
     FM201500 27010KT P6SM SKC
     FM202000 23008KT P6SM BKN080=

USA.gov is the U.S. government's official web portal to all federal, state and local government web resources and services.